createdAt,value
2022-08-10T00:00:58.132Z,17.90
2022-08-10T00:03:27.651Z,17.84
2022-08-10T00:05:56.759Z,17.78
2022-08-10T00:08:25.459Z,17.79
2022-08-10T00:10:55.533Z,17.82
2022-08-10T00:13:28.664Z,17.83
2022-08-10T00:15:58.256Z,17.81
2022-08-10T00:18:35.149Z,17.78
2022-08-10T00:21:07.606Z,17.74
2022-08-10T00:23:37.577Z,17.71
2022-08-10T00:26:10.312Z,17.64
2022-08-10T00:28:39.178Z,17.55
2022-08-10T00:31:08.798Z,17.47
2022-08-10T00:33:37.186Z,17.41
2022-08-10T00:36:05.839Z,17.38
2022-08-10T00:38:37.009Z,17.32
2022-08-10T00:41:05.866Z,17.28
2022-08-10T00:43:35.333Z,17.25
2022-08-10T00:46:04.669Z,17.17
2022-08-10T00:48:36.487Z,17.10
2022-08-10T00:51:06.832Z,17.05
2022-08-10T00:53:37.507Z,17.00
2022-08-10T00:57:07.871Z,16.97
2022-08-10T00:58:56.277Z,16.91
2022-08-10T01:02:08.246Z,16.88
2022-08-10T01:04:57.550Z,16.82
2022-08-10T01:07:23.294Z,16.76
2022-08-10T01:10:25.794Z,16.65
2022-08-10T01:13:08.096Z,16.57
2022-08-10T01:16:05.352Z,16.47
2022-08-10T01:18:50.056Z,16.48
2022-08-10T01:21:54.055Z,16.51
2022-08-10T01:24:45.159Z,16.47
2022-08-10T01:27:28.915Z,16.54
2022-08-10T01:30:09.098Z,16.59
2022-08-10T01:33:00.261Z,16.66
2022-08-10T01:35:38.410Z,16.68
2022-08-10T01:38:18.127Z,16.69
2022-08-10T01:40:52.421Z,16.70
2022-08-10T01:43:25.542Z,16.78
2022-08-10T01:46:00.162Z,16.86
2022-08-10T01:48:32.459Z,16.89
2022-08-10T01:51:22.092Z,16.89
2022-08-10T01:53:57.936Z,16.83
2022-08-10T01:56:32.202Z,16.80
2022-08-10T01:59:02.925Z,16.77
2022-08-10T02:01:38.510Z,16.70
2022-08-10T02:04:10.106Z,16.62
2022-08-10T02:06:53.631Z,16.56
2022-08-10T02:09:28.147Z,16.49
2022-08-10T02:12:08.181Z,16.38
2022-08-10T02:14:43.623Z,16.32
2022-08-10T02:17:57.310Z,16.30
2022-08-10T02:20:17.734Z,16.28
2022-08-10T02:23:03.344Z,16.25
2022-08-10T02:25:41.643Z,16.20
2022-08-10T02:28:30.404Z,16.17
2022-08-10T02:31:11.586Z,16.15
2022-08-10T02:33:56.298Z,16.09
2022-08-10T02:36:27.754Z,16.09
2022-08-10T02:39:01.130Z,16.07
2022-08-10T02:45:14.851Z,15.96
2022-08-10T02:45:19.058Z,15.76
2022-08-10T02:47:50.767Z,15.67
2022-08-10T02:50:40.247Z,15.62
2022-08-10T02:53:54.632Z,15.48
2022-08-10T02:56:15.275Z,15.46
2022-08-10T02:58:46.914Z,15.46
2022-08-10T03:01:21.000Z,15.46
2022-08-10T03:03:58.973Z,15.45
2022-08-10T03:06:35.131Z,15.46
2022-08-10T03:09:10.334Z,15.47
2022-08-10T03:12:35.150Z,15.38
2022-08-10T03:14:32.111Z,15.30
2022-08-10T03:17:02.812Z,15.34
2022-08-10T03:20:34.894Z,15.37
2022-08-10T03:22:26.075Z,15.46
2022-08-10T03:24:56.201Z,15.53
2022-08-10T03:27:24.786Z,15.62
2022-08-10T03:30:28.266Z,15.73
2022-08-10T03:32:46.971Z,15.78
2022-08-10T03:35:16.065Z,15.84
2022-08-10T03:37:45.917Z,15.83
2022-08-10T03:40:14.829Z,15.86
2022-08-10T03:42:47.408Z,15.92
2022-08-10T03:45:17.884Z,15.93
2022-08-10T03:47:48.711Z,15.95
2022-08-10T03:50:45.335Z,15.98
2022-08-10T03:53:08.346Z,16.02
2022-08-10T03:56:29.237Z,16.02
2022-08-10T03:58:42.604Z,16.08
2022-08-10T04:01:13.282Z,16.17
2022-08-10T04:03:43.054Z,16.23
2022-08-10T04:06:12.454Z,16.32
2022-08-10T04:08:44.986Z,16.38
2022-08-10T04:11:13.654Z,16.45
2022-08-10T04:13:42.641Z,16.52
2022-08-10T04:16:11.089Z,16.58
2022-08-10T04:18:39.615Z,16.67
2022-08-10T04:21:13.068Z,16.76
2022-08-10T04:23:44.665Z,16.85
2022-08-10T04:26:14.944Z,16.95
2022-08-10T04:28:44.318Z,17.06
2022-08-10T04:31:17.888Z,17.14
2022-08-10T04:33:51.327Z,17.22
2022-08-10T04:36:22.438Z,17.27
2022-08-10T04:38:54.199Z,17.35
2022-08-10T04:41:23.132Z,17.41
2022-08-10T04:43:53.318Z,17.45
2022-08-10T04:46:56.256Z,17.49
2022-08-10T04:49:40.332Z,17.45
2022-08-10T04:52:00.954Z,17.42
2022-08-10T04:54:30.408Z,17.47
2022-08-10T04:56:59.474Z,17.53
2022-08-10T04:59:28.874Z,17.58
2022-08-10T05:02:22.267Z,17.59
2022-08-10T05:04:46.454Z,17.63
2022-08-10T05:07:18.336Z,17.66
2022-08-10T05:10:04.531Z,17.72
2022-08-10T05:12:40.802Z,17.76
2022-08-10T05:15:15.088Z,17.81
2022-08-10T05:18:03.347Z,17.87
2022-08-10T05:20:32.288Z,17.91
2022-08-10T05:23:00.599Z,17.97
2022-08-10T05:25:29.379Z,18.09
2022-08-10T05:28:06.114Z,18.16
2022-08-10T05:30:35.066Z,18.28
2022-08-10T05:33:08.542Z,18.35
2022-08-10T05:35:55.380Z,18.32
2022-08-10T05:38:30.361Z,18.36
2022-08-10T05:40:59.920Z,18.45
2022-08-10T05:43:28.533Z,18.59
2022-08-10T05:46:19.567Z,18.74
2022-08-10T05:48:59.651Z,18.79
2022-08-10T05:51:30.457Z,18.85
2022-08-10T05:54:06.745Z,18.92
2022-08-10T05:56:54.908Z,18.93
2022-08-10T06:00:33.233Z,18.99
2022-08-10T06:02:41.004Z,19.15
2022-08-10T06:05:16.070Z,19.30
2022-08-10T06:07:54.551Z,19.46
2022-08-10T06:10:28.614Z,19.72
2022-08-10T06:13:30.906Z,19.97
2022-08-10T06:16:08.948Z,20.23
2022-08-10T06:18:37.588Z,20.42
2022-08-10T06:21:09.938Z,20.51
2022-08-10T06:23:39.803Z,20.53
2022-08-10T06:26:14.141Z,20.59
2022-08-10T06:29:10.858Z,20.63
2022-08-10T06:31:48.925Z,20.67
2022-08-10T06:34:49.848Z,20.67
2022-08-10T06:37:21.006Z,20.64
2022-08-10T06:39:51.933Z,20.68
2022-08-10T06:42:33.092Z,20.65
2022-08-10T06:45:08.183Z,20.64
2022-08-10T06:48:00.545Z,20.62
2022-08-10T06:50:58.005Z,20.57
2022-08-10T06:53:53.175Z,20.56
2022-08-10T06:56:36.536Z,20.53
2022-08-10T06:59:22.727Z,20.43
2022-08-10T07:01:59.528Z,20.39
2022-08-10T07:04:35.687Z,20.37
2022-08-10T07:07:07.875Z,20.40
2022-08-10T07:09:41.605Z,20.46
2022-08-10T07:12:16.463Z,20.45
2022-08-10T07:14:46.251Z,20.40
2022-08-10T07:17:19.373Z,20.40
2022-08-10T07:19:52.746Z,20.41
2022-08-10T07:23:01.255Z,20.32
2022-08-10T07:25:27.607Z,20.13
2022-08-10T07:28:01.848Z,20.00
2022-08-10T07:30:36.268Z,19.94
2022-08-10T07:33:06.950Z,19.90
2022-08-10T07:35:43.176Z,19.89
2022-08-10T07:38:19.487Z,20.01
2022-08-10T07:40:52.149Z,20.07
2022-08-10T07:43:25.821Z,20.08
2022-08-10T07:45:57.260Z,20.06
2022-08-10T07:48:29.078Z,20.06
2022-08-10T07:51:00.508Z,20.08
2022-08-10T07:53:36.226Z,20.11
2022-08-10T07:56:16.864Z,20.29
2022-08-10T07:59:06.537Z,20.47
2022-08-10T08:01:43.236Z,20.59
2022-08-10T08:04:15.360Z,20.68
2022-08-10T08:06:45.742Z,20.71
2022-08-10T08:09:14.252Z,20.72
2022-08-10T08:11:44.922Z,20.74
2022-08-10T08:14:15.835Z,20.89
2022-08-10T08:16:52.177Z,20.92
2022-08-10T08:19:28.015Z,21.07
2022-08-10T08:24:04.649Z,21.11
2022-08-10T08:24:57.794Z,21.16
2022-08-10T08:27:29.752Z,21.23
2022-08-10T08:30:00.188Z,21.31
2022-08-10T08:32:33.853Z,21.32
2022-08-10T08:35:08.560Z,21.41
2022-08-10T08:38:32.122Z,21.43
2022-08-10T08:40:38.333Z,21.31
2022-08-10T08:43:27.294Z,21.23
2022-08-10T08:46:07.580Z,21.20
2022-08-10T08:48:44.114Z,21.20
2022-08-10T08:52:09.293Z,21.17
2022-08-10T08:54:51.432Z,20.96
2022-08-10T08:58:04.512Z,20.84
2022-08-10T09:00:57.771Z,20.81
2022-08-10T09:03:48.009Z,20.78
2022-08-10T09:06:31.858Z,20.82
2022-08-10T09:09:20.251Z,20.91
2022-08-10T09:12:13.984Z,20.92
2022-08-10T09:15:06.176Z,20.93
2022-08-10T09:17:56.510Z,20.83
2022-08-10T09:20:45.827Z,20.78
2022-08-10T09:24:01.546Z,20.92
2022-08-10T09:26:45.917Z,21.04
2022-08-10T09:29:31.742Z,21.09
2022-08-10T09:36:17.487Z,21.09
2022-08-10T09:36:22.796Z,21.10
2022-08-10T09:38:18.634Z,21.11
2022-08-10T09:40:59.273Z,21.09
2022-08-10T09:43:47.005Z,21.07
2022-08-10T09:46:54.419Z,21.11
2022-08-10T09:50:04.389Z,21.19
2022-08-10T09:53:27.824Z,21.22
2022-08-10T09:56:29.085Z,21.19
2022-08-10T10:00:01.577Z,21.15
2022-08-10T10:02:30.019Z,21.04
2022-08-10T10:05:14.900Z,21.06
2022-08-10T10:07:51.873Z,21.05
2022-08-10T10:10:27.408Z,21.11
2022-08-10T10:13:01.650Z,21.10
2022-08-10T10:15:43.924Z,21.20
2022-08-10T10:18:23.237Z,21.36
2022-08-10T10:21:03.018Z,21.54
2022-08-10T10:24:19.782Z,21.69
2022-08-10T10:27:16.377Z,21.75
2022-08-10T10:30:00.992Z,21.98
2022-08-10T10:32:37.227Z,22.10
2022-08-10T10:35:09.428Z,22.17
2022-08-10T10:38:01.755Z,22.24
2022-08-10T10:40:59.684Z,22.20
2022-08-10T10:43:44.303Z,22.12
2022-08-10T10:46:19.930Z,21.94
2022-08-10T10:48:54.771Z,21.73
2022-08-10T10:51:28.038Z,21.67
2022-08-10T10:54:30.063Z,21.59
2022-08-10T10:57:19.587Z,21.31
2022-08-10T10:59:57.732Z,21.27
2022-08-10T11:02:36.703Z,21.33
2022-08-10T11:05:32.086Z,21.33
2022-08-10T11:08:08.480Z,21.46
2022-08-10T11:10:49.637Z,21.59
2022-08-10T11:14:24.456Z,21.66
2022-08-10T11:16:59.901Z,21.68
2022-08-10T11:20:14.415Z,21.69
2022-08-10T11:22:43.358Z,21.74
2022-08-10T11:25:21.033Z,21.85
2022-08-10T11:28:07.818Z,21.91
2022-08-10T11:30:40.170Z,21.84
2022-08-10T11:34:03.799Z,21.81
2022-08-10T11:36:48.311Z,21.85
2022-08-10T11:39:37.282Z,21.91
2022-08-10T11:42:40.057Z,21.90
2022-08-10T11:45:52.493Z,21.86
2022-08-10T11:49:02.121Z,21.95
2022-08-10T11:51:57.798Z,22.09
2022-08-10T11:54:50.905Z,22.14
2022-08-10T11:57:21.181Z,22.16
2022-08-10T11:59:59.509Z,22.24
2022-08-10T12:02:40.954Z,22.54
2022-08-10T12:05:16.603Z,22.75
2022-08-10T12:08:54.905Z,22.86
2022-08-10T12:10:41.103Z,22.89
2022-08-10T12:13:24.558Z,22.92
2022-08-10T12:16:15.187Z,22.98
2022-08-10T12:19:03.905Z,23.17
2022-08-10T12:21:45.774Z,23.31
2022-08-10T12:24:31.706Z,23.33
2022-08-10T12:27:13.015Z,23.30
2022-08-10T12:29:55.645Z,23.25
2022-08-10T12:32:54.050Z,23.25
2022-08-10T12:35:56.149Z,23.15
2022-08-10T12:38:48.757Z,23.21
2022-08-10T12:41:41.562Z,23.12
2022-08-10T12:44:18.360Z,22.97
2022-08-10T12:47:10.486Z,23.01
2022-08-10T12:50:29.241Z,23.10
2022-08-10T12:53:04.893Z,23.14
2022-08-10T12:55:39.275Z,23.00
2022-08-10T12:59:00.482Z,22.79
2022-08-10T13:01:16.253Z,22.70
2022-08-10T13:04:20.781Z,22.66
2022-08-10T13:06:46.448Z,22.50
2022-08-10T13:09:21.609Z,22.66
2022-08-10T13:12:39.233Z,22.86
2022-08-10T13:15:44.887Z,22.89
2022-08-10T13:18:00.277Z,23.03
2022-08-10T13:20:38.227Z,23.04
2022-08-10T13:23:17.937Z,23.16
2022-08-10T13:25:49.825Z,23.39
2022-08-10T13:28:49.601Z,23.46
2022-08-10T13:32:04.021Z,23.44
2022-08-10T13:34:40.044Z,23.49
2022-08-10T13:37:17.730Z,23.53
2022-08-10T13:39:57.808Z,23.64
2022-08-10T13:42:36.013Z,23.59
2022-08-10T13:45:11.114Z,23.57
2022-08-10T13:47:48.360Z,23.58
2022-08-10T13:50:33.595Z,23.60
2022-08-10T13:53:15.752Z,23.66
2022-08-10T13:55:55.368Z,23.70
2022-08-10T13:58:33.927Z,23.67
2022-08-10T14:01:12.841Z,23.53
2022-08-10T14:03:45.073Z,23.42
2022-08-10T14:06:20.887Z,23.33
2022-08-10T14:08:54.056Z,23.35
2022-08-10T14:11:26.252Z,23.42
2022-08-10T14:14:15.473Z,23.44
2022-08-10T14:16:48.532Z,23.33
2022-08-10T14:19:21.785Z,23.38
2022-08-10T14:21:51.418Z,23.43
2022-08-10T14:24:34.624Z,23.43
2022-08-10T14:27:07.211Z,23.40
2022-08-10T14:29:49.558Z,23.30
2022-08-10T14:32:23.783Z,23.17
2022-08-10T14:36:15.251Z,23.13
2022-08-10T14:37:50.291Z,23.13
2022-08-10T14:40:22.434Z,23.10
2022-08-10T14:43:02.131Z,23.09
2022-08-10T14:45:37.582Z,23.13
2022-08-10T14:48:21.290Z,23.06
2022-08-10T14:50:58.397Z,23.00
2022-08-10T14:53:35.350Z,23.02
2022-08-10T14:56:15.882Z,22.94
2022-08-10T14:59:05.666Z,22.82
2022-08-10T15:02:00.000Z,22.77
2022-08-10T15:04:29.321Z,22.56
2022-08-10T15:07:24.925Z,22.33
2022-08-10T15:10:01.653Z,22.07
2022-08-10T15:12:36.430Z,21.91
2022-08-10T15:15:08.648Z,21.84
2022-08-10T15:17:43.326Z,21.76
2022-08-10T15:20:21.211Z,21.73
2022-08-10T15:22:54.520Z,21.74
2022-08-10T15:25:26.300Z,21.71
2022-08-10T15:28:08.261Z,21.66
2022-08-10T15:30:43.390Z,21.64
2022-08-10T15:33:57.709Z,21.59
2022-08-10T15:36:46.830Z,21.53
2022-08-10T15:40:20.640Z,21.46
2022-08-10T15:42:27.211Z,21.40
2022-08-10T15:44:55.744Z,21.38
2022-08-10T15:47:46.271Z,21.42
2022-08-10T15:50:39.738Z,21.44
2022-08-10T15:53:15.645Z,21.39
2022-08-10T15:55:50.330Z,21.33
2022-08-10T15:58:37.600Z,21.28
2022-08-10T16:02:04.111Z,21.23
2022-08-10T16:04:09.037Z,21.21
2022-08-10T16:06:45.074Z,21.18
2022-08-10T16:10:24.277Z,21.12
2022-08-10T16:12:29.444Z,21.11
2022-08-10T16:15:04.485Z,21.08
2022-08-10T16:17:54.540Z,21.05
2022-08-10T16:20:33.714Z,21.03
2022-08-10T16:23:32.059Z,20.96
2022-08-10T16:26:13.524Z,20.88
2022-08-10T16:28:56.943Z,20.82
2022-08-10T16:31:30.859Z,20.77
2022-08-10T16:34:04.701Z,20.74
2022-08-10T16:36:48.688Z,20.67
2022-08-10T16:39:59.892Z,20.65
2022-08-10T16:42:27.922Z,20.55
2022-08-10T16:45:17.871Z,20.49
2022-08-10T16:47:49.561Z,20.39
2022-08-10T16:50:32.923Z,20.34
2022-08-10T16:53:03.565Z,20.31
2022-08-10T16:55:48.791Z,20.29
2022-08-10T16:58:39.680Z,20.30
2022-08-10T17:01:13.345Z,20.29
2022-08-10T17:04:07.415Z,20.29
2022-08-10T17:06:55.885Z,20.29
2022-08-10T17:09:32.158Z,20.28
2022-08-10T17:12:10.745Z,20.26
2022-08-10T17:14:41.715Z,20.23
2022-08-10T17:17:26.513Z,20.20
2022-08-10T17:20:32.141Z,20.17
2022-08-10T17:22:54.895Z,20.07
2022-08-10T17:25:48.538Z,20.05
2022-08-10T17:28:35.369Z,19.98
2022-08-10T17:31:39.711Z,19.91
2022-08-10T17:34:15.760Z,19.85
2022-08-10T17:36:49.706Z,19.78
2022-08-10T17:39:22.772Z,19.72
2022-08-10T17:41:55.303Z,19.67
2022-08-10T17:44:26.643Z,19.63
2022-08-10T17:46:56.369Z,19.55
2022-08-10T17:49:27.776Z,19.42
2022-08-10T17:51:59.437Z,19.36
2022-08-10T17:54:38.866Z,19.29
2022-08-10T17:57:12.839Z,19.23
2022-08-10T17:59:44.574Z,19.17
2022-08-10T18:02:23.552Z,19.12
2022-08-10T18:04:55.219Z,19.08
2022-08-10T18:07:39.231Z,19.05
2022-08-10T18:10:11.279Z,18.99
2022-08-10T18:12:44.917Z,18.92
2022-08-10T18:15:18.424Z,18.88
2022-08-10T18:17:52.500Z,18.84
2022-08-10T18:20:27.760Z,18.77
2022-08-10T18:22:59.370Z,18.71
2022-08-10T18:25:33.781Z,18.65
2022-08-10T18:28:06.008Z,18.60
2022-08-10T18:30:45.656Z,18.55
2022-08-10T18:33:16.609Z,18.51
2022-08-10T18:35:46.729Z,18.47
2022-08-10T18:38:17.656Z,18.41
2022-08-10T18:40:59.528Z,18.32
2022-08-10T18:44:07.323Z,18.26
2022-08-10T18:46:28.712Z,18.12
2022-08-10T18:49:06.617Z,18.09
2022-08-10T18:51:46.680Z,18.02
2022-08-10T18:54:39.028Z,18.00
2022-08-10T18:57:36.353Z,18.01
2022-08-10T19:00:13.444Z,18.06
2022-08-10T19:03:16.606Z,18.08
2022-08-10T19:06:07.979Z,18.13
2022-08-10T19:08:58.248Z,18.13
2022-08-10T19:11:49.010Z,18.09
2022-08-10T19:14:36.389Z,18.03
2022-08-10T19:17:12.068Z,17.95
2022-08-10T19:19:41.600Z,17.93
2022-08-10T19:22:37.268Z,17.87
2022-08-10T19:25:10.178Z,17.77
2022-08-10T19:27:52.754Z,17.69
2022-08-10T19:30:37.700Z,17.63
2022-08-10T19:33:16.632Z,17.59
2022-08-10T19:36:06.334Z,17.51
2022-08-10T19:38:59.211Z,17.47
2022-08-10T19:41:44.796Z,17.44
2022-08-10T19:44:48.782Z,17.44
2022-08-10T19:47:36.350Z,17.43
2022-08-10T19:50:13.691Z,17.48
2022-08-10T19:53:03.801Z,17.47
2022-08-10T19:55:43.448Z,17.46
2022-08-10T19:58:34.653Z,17.44
2022-08-10T20:01:07.114Z,17.43
2022-08-10T20:03:41.015Z,17.44
2022-08-10T20:06:21.002Z,17.43
2022-08-10T20:09:05.755Z,17.46
2022-08-10T20:12:08.192Z,17.36
2022-08-10T20:14:50.521Z,17.23
2022-08-10T20:17:52.112Z,17.19
2022-08-10T20:21:13.154Z,17.12
2022-08-10T20:23:53.903Z,17.08
2022-08-10T20:26:29.536Z,17.06
2022-08-10T20:29:10.104Z,17.03
2022-08-10T20:31:57.022Z,17.03
2022-08-10T20:34:39.070Z,17.02
2022-08-10T20:37:27.247Z,16.97
2022-08-10T20:40:18.758Z,16.89
2022-08-10T20:43:29.846Z,16.91
2022-08-10T20:46:09.269Z,16.86
2022-08-10T20:48:55.534Z,16.79
2022-08-10T20:51:58.810Z,16.72
2022-08-10T20:54:22.729Z,16.66
2022-08-10T20:57:56.511Z,16.62
2022-08-10T21:00:17.128Z,16.55
2022-08-10T21:02:51.584Z,16.51
2022-08-10T21:05:43.835Z,16.48
2022-08-10T21:08:12.159Z,16.45
2022-08-10T21:11:02.445Z,16.39
2022-08-10T21:13:49.714Z,16.29
2022-08-10T21:16:55.335Z,16.18
2022-08-10T21:19:55.812Z,16.05
2022-08-10T21:22:37.810Z,15.97
2022-08-10T21:25:30.029Z,15.96
2022-08-10T21:27:58.191Z,15.94
2022-08-10T21:30:42.125Z,15.86
2022-08-10T21:33:36.266Z,15.83
2022-08-10T21:36:18.559Z,15.79
2022-08-10T21:39:03.716Z,15.73
2022-08-10T21:42:22.290Z,15.65
2022-08-10T21:45:59.431Z,15.52
2022-08-10T21:49:14.524Z,15.37
2022-08-10T21:52:17.000Z,15.31
2022-08-10T21:55:13.609Z,15.34
2022-08-10T21:58:23.291Z,15.36
2022-08-10T22:01:39.440Z,15.31
2022-08-10T22:04:27.136Z,15.32
2022-08-10T22:07:16.799Z,15.29
2022-08-10T22:10:09.106Z,15.26
2022-08-10T22:13:01.032Z,15.21
2022-08-10T22:16:10.163Z,15.14
2022-08-10T22:19:03.938Z,15.07
2022-08-10T22:22:27.003Z,14.99
2022-08-10T22:25:41.313Z,14.88
2022-08-10T22:28:37.033Z,14.80
2022-08-10T22:31:36.675Z,14.75
2022-08-10T22:34:39.518Z,14.63
2022-08-10T22:37:48.283Z,14.51
2022-08-10T22:40:41.591Z,14.38
2022-08-10T22:43:40.540Z,14.23
2022-08-10T22:46:37.019Z,14.18
2022-08-10T22:49:06.800Z,14.21
2022-08-10T22:52:07.635Z,14.28
2022-08-10T22:55:07.993Z,14.32
2022-08-10T22:58:05.021Z,14.31
2022-08-10T23:00:34.323Z,14.24
2022-08-10T23:03:21.852Z,14.16
2022-08-10T23:05:55.207Z,14.15
2022-08-10T23:08:53.119Z,14.17
2022-08-10T23:11:35.789Z,14.19
2022-08-10T23:14:08.150Z,14.19
2022-08-10T23:17:09.260Z,14.16
2022-08-10T23:19:47.981Z,14.12
2022-08-10T23:22:21.072Z,14.08
2022-08-10T23:25:07.510Z,14.08
2022-08-10T23:27:40.626Z,14.04
2022-08-10T23:30:17.585Z,14.02
2022-08-10T23:32:59.338Z,14.03
2022-08-10T23:36:30.368Z,14.02
2022-08-10T23:38:23.160Z,13.99
2022-08-10T23:40:55.344Z,13.94
2022-08-10T23:44:00.398Z,13.84
2022-08-10T23:46:24.349Z,13.78
2022-08-10T23:48:56.519Z,13.78
2022-08-10T23:51:54.484Z,13.84
2022-08-10T23:54:25.223Z,13.83
2022-08-10T23:57:00.731Z,13.78
2022-08-10T23:59:32.784Z,13.75
